Saranac, Michigan
Current Conditions -  °F | °C
As of 4:33 PM on Friday 19 Dec 2014 (Local Time) from KY70 Reporting Station
Clear Clear  
Wind Chill: 25°   Ceiling: Unl
Heat Index: 31°   Visibility: 10mi
Dew Point: 21°   Wind: 6mph
Humidity: 68%   Direction: 180°S
Pressure: 30.25"   Gusts: NA
Location:  42.93°N, 85.21°W
Report Text: KY70 192133Z AUTO 18005KT 10SM CLR M01/M06 A3025 RMK AO2 T10081060
Loading
Personal Weather Stations






























Interactive Weather Map New forecast layout! Learn more

10-Day Weather Forecast

Advertisements
Track Severe Weather on mobile